Time;durP1;ratioP1;P1;durP2;ratioP2;P2;SDS_P1;SDS_P2;PMS_P1;PMS_P2;Temp;Humidity;BMP_temperature;BMP_pressure;BME280_temperature;BME280_humidity;BME280_pressure;Samples;Min_cycle;Max_cycle;Signal;HPM_P1;HPM_P2
2022/05/25 00:02:42;;;;;;;0.82;0.60;;;;;;;11.79;100.00;97970.72;15279492;19;20366;-56
2022/05/25 00:07:48;;;;;;;0.75;0.40;;;;;;;11.79;100.00;97981.50;15289491;19;20085;-58
2022/05/25 00:12:55;;;;;;;1.15;0.57;;;;;;;11.77;100.00;97980.84;15284245;19;20342;-54
2022/05/25 00:18:00;;;;;;;1.27;0.65;;;;;;;11.73;100.00;97991.16;15287127;19;20021;-55
2022/05/25 00:23:06;;;;;;;0.68;0.60;;;;;;;11.70;100.00;97992.34;15283661;19;20021;-53
2022/05/25 00:28:16;;;;;;;0.77;0.50;;;;;;;11.63;100.00;97990.56;15283024;19;20034;-58
2022/05/25 00:33:21;;;;;;;0.90;0.60;;;;;;;11.57;100.00;97992.09;15284470;19;20483;-58
2022/05/25 00:38:26;;;;;;;1.20;0.43;;;;;;;11.52;100.00;97999.88;15287885;19;20037;-57
2022/05/25 00:43:34;;;;;;;0.65;0.50;;;;;;;11.47;100.00;98007.66;15283059;19;20035;-58
2022/05/25 00:48:43;;;;;;;0.70;0.60;;;;;;;11.40;100.00;98008.38;15285778;19;20703;-57
2022/05/25 00:53:54;;;;;;;0.88;0.60;;;;;;;11.33;100.00;98018.19;15281498;19;20015;-55
2022/05/25 00:59:06;;;;;;;0.40;0.40;;;;;;;11.30;100.00;98013.16;15280852;19;20018;-56
2022/05/25 01:04:14;;;;;;;1.25;0.60;;;;;;;11.29;100.00;97999.84;15282903;19;20026;-57
2022/05/25 01:09:28;;;;;;;1.83;0.70;;;;;;;11.14;100.00;98003.28;15283630;19;20011;-56
2022/05/25 01:14:46;;;;;;;1.00;0.50;;;;;;;11.14;100.00;97997.03;15277548;19;20413;-56
2022/05/25 01:20:11;;;;;;;0.80;0.50;;;;;;;11.14;100.00;97995.19;15282372;19;20010;-56
2022/05/25 01:31:13;;;;;;;0.55;0.55;;;;;;;11.01;100.00;97992.22;15275640;19;19983;-55
2022/05/25 01:36:25;;;;;;;0.95;0.60;;;;;;;10.99;100.00;98010.41;15279166;19;20018;-54
2022/05/25 01:41:39;;;;;;;0.68;0.52;;;;;;;10.95;100.00;97991.06;15279457;19;20014;-53
2022/05/25 01:46:50;;;;;;;2.30;0.47;;;;;;;10.95;100.00;97996.47;15283748;19;20385;-57
2022/05/25 01:51:57;;;;;;;;;;;;;;;10.93;100.00;97985.00;15276696;19;20014;-56
2022/05/25 01:57:08;;;;;;;0.70;0.63;;;;;;;10.87;100.00;97981.16;15282096;19;19911;-57
2022/05/25 02:07:57;;;;;;;0.63;0.60;;;;;;;10.86;100.00;97992.13;15277572;19;20129;-52
2022/05/25 02:13:14;;;;;;;1.10;0.60;;;;;;;10.70;100.00;98004.63;15275910;19;20506;-56
2022/05/25 02:18:36;;;;;;;0.98;0.70;;;;;;;10.56;100.00;98008.00;15275877;19;20010;-56
2022/05/25 02:23:49;;;;;;;1.65;0.60;;;;;;;10.58;100.00;98008.69;15276979;19;20372;-54
2022/05/25 02:34:52;;;;;;;0.68;0.60;;;;;;;10.56;100.00;98002.63;15275804;19;19978;-56
2022/05/25 02:39:57;;;;;;;1.85;0.77;;;;;;;10.51;100.00;98018.47;15271397;19;20010;-53
2022/05/25 02:45:02;;;;;;;0.90;0.68;;;;;;;10.49;100.00;98026.69;15276843;19;20362;-56
2022/05/25 02:50:11;;;;;;;3.03;0.77;;;;;;;10.48;100.00;98025.00;15275211;19;20077;-53
2022/05/25 02:55:18;;;;;;;0.60;0.60;;;;;;;10.47;100.00;98045.72;15271972;19;20022;-57
2022/05/25 03:00:23;;;;;;;0.93;0.80;;;;;;;10.44;100.00;98050.63;15274144;19;20019;-56
2022/05/25 03:05:31;;;;;;;1.92;0.60;;;;;;;10.44;100.00;98056.84;15285858;19;20022;-53
2022/05/25 03:10:38;;;;;;;1.25;0.70;;;;;;;10.44;100.00;98053.31;15282095;19;20014;-56
2022/05/25 03:15:44;;;;;;;1.23;0.70;;;;;;;10.43;100.00;98063.22;15285874;19;20455;-53
2022/05/25 03:20:53;;;;;;;1.05;0.50;;;;;;;10.45;100.00;98061.22;15287652;19;20037;-54
2022/05/25 03:25:58;;;;;;;1.58;0.70;;;;;;;10.44;100.00;98081.06;14778956;19;10000117;-53
2022/05/25 03:31:04;;;;;;;1.95;0.75;;;;;;;10.43;100.00;98082.09;15285991;19;20039;-56
2022/05/25 03:36:13;;;;;;;1.90;0.70;;;;;;;10.45;100.00;98093.53;15285287;19;20021;-57
2022/05/25 03:41:21;;;;;;;0.70;0.60;;;;;;;10.46;100.00;98102.47;15279774;19;20014;-54
2022/05/25 03:46:27;;;;;;;0.95;0.70;;;;;;;10.46;100.00;98095.22;15291182;19;20054;-59
2022/05/25 03:51:35;;;;;;;1.33;0.65;;;;;;;10.46;100.00;98103.31;15283086;19;20022;-57
2022/05/25 03:56:40;;;;;;;1.15;0.60;;;;;;;10.47;100.00;98110.38;15281848;19;20010;-54
2022/05/25 04:01:45;;;;;;;0.88;0.60;;;;;;;10.51;100.00;98110.03;15280667;19;20015;-57
2022/05/25 04:06:53;;;;;;;1.00;0.70;;;;;;;10.54;100.00;98124.00;15288165;19;20024;-58
2022/05/25 04:12:01;;;;;;;1.23;0.50;;;;;;;10.58;100.00;98119.97;15276897;19;20018;-58
2022/05/25 04:17:06;;;;;;;0.80;0.60;;;;;;;10.63;100.00;98122.16;15274373;19;20046;-58
2022/05/25 04:22:15;;;;;;;0.90;0.70;;;;;;;10.66;100.00;98120.97;15280522;19;20620;-56
2022/05/25 04:27:20;;;;;;;0.63;0.63;;;;;;;10.71;100.00;98126.69;15287714;19;20050;-58
2022/05/25 04:32:25;;;;;;;2.08;0.70;;;;;;;10.75;100.00;98117.25;15280775;19;20017;-54
2022/05/25 04:42:51;;;;;;;2.08;0.80;;;;;;;10.90;100.00;98133.56;15284346;19;20019;-58
2022/05/25 04:47:57;;;;;;;1.42;0.80;;;;;;;10.98;100.00;98133.59;15281064;19;20376;-53
2022/05/25 04:53:06;;;;;;;1.15;0.68;;;;;;;11.02;100.00;98131.38;15280590;19;20507;-55
2022/05/25 04:58:20;;;;;;;1.75;0.70;;;;;;;11.04;100.00;98129.34;15281459;19;20018;-54
2022/05/25 05:03:28;;;;;;;1.17;0.73;;;;;;;11.12;100.00;98131.16;15283898;19;20026;-57
2022/05/25 05:08:37;;;;;;;0.98;0.60;;;;;;;11.20;100.00;98134.69;15283801;19;20014;-55
2022/05/25 05:13:42;;;;;;;0.60;0.60;;;;;;;11.26;100.00;98135.84;15281977;19;20007;-53
2022/05/25 05:18:48;;;;;;;0.75;0.70;;;;;;;11.32;100.00;98145.09;15278529;19;20015;-55
2022/05/25 05:24:15;;;;;;;0.90;0.60;;;;;;;11.37;100.00;98151.66;15280268;19;20010;-54
2022/05/25 05:29:20;;;;;;;0.65;0.60;;;;;;;11.42;100.00;98161.94;15279185;19;20114;-52
2022/05/25 05:34:28;;;;;;;0.88;0.50;;;;;;;11.45;100.00;98160.78;15281626;19;20505;-54
2022/05/25 05:39:38;;;;;;;2.08;0.73;;;;;;;11.47;100.00;98169.50;15281096;19;20018;-53
2022/05/25 05:44:48;;;;;;;1.15;0.65;;;;;;;11.54;100.00;98165.94;15280702;19;20503;-55
2022/05/25 05:49:54;;;;;;;1.95;0.73;;;;;;;11.60;100.00;98163.56;15274704;19;20077;-52
2022/05/25 05:55:05;;;;;;;1.55;0.70;;;;;;;11.68;100.00;98177.03;15279138;19;20017;-55
2022/05/25 06:00:13;;;;;;;1.48;0.80;;;;;;;11.71;100.00;98196.41;15278586;19;20041;-55
2022/05/25 06:05:18;;;;;;;2.22;0.80;;;;;;;11.74;100.00;98211.44;15277140;19;20018;-83
2022/05/25 06:10:26;;;;;;;3.13;0.80;;;;;;;11.88;100.00;98209.84;15290449;19;20007;-82
2022/05/25 06:20:56;;;;;;;0.98;0.80;;;;;;;12.11;100.00;98211.81;15286897;19;20450;-82
2022/05/25 06:26:05;;;;;;;1.27;0.70;;;;;;;12.21;100.00;98212.44;15280688;19;20519;-81
2022/05/25 06:31:10;;;;;;;0.60;0.60;;;;;;;12.32;100.00;98212.03;15296755;19;20007;-81
2022/05/25 06:36:17;;;;;;;1.23;0.70;;;;;;;12.37;100.00;98221.47;15301204;19;20034;-82
2022/05/25 06:41:25;;;;;;;2.15;1.00;;;;;;;12.47;100.00;98231.00;15306218;19;20456;-82
2022/05/25 06:46:31;;;;;;;1.20;0.60;;;;;;;12.56;100.00;98236.38;15301467;19;20014;-83
2022/05/25 06:51:39;;;;;;;0.50;0.50;;;;;;;12.74;100.00;98236.09;15304841;19;20022;-82
2022/05/25 06:56:47;;;;;;;1.17;0.70;;;;;;;12.94;100.00;98237.28;15294823;19;20034;-83
2022/05/25 07:01:53;;;;;;;2.33;0.80;;;;;;;13.16;100.00;98239.31;15302287;19;20014;-80
2022/05/25 07:06:58;;;;;;;1.30;0.60;;;;;;;13.35;100.00;98246.06;15298397;19;20017;-82
2022/05/25 07:12:07;;;;;;;1.63;0.80;;;;;;;13.47;100.00;98241.09;15313766;19;20035;-81
2022/05/25 07:17:13;;;;;;;2.03;0.70;;;;;;;13.61;100.00;98244.81;15304470;19;20760;-83
2022/05/25 07:22:18;;;;;;;2.15;0.68;;;;;;;13.71;100.00;98248.09;15303285;19;20015;-83
2022/05/25 07:27:26;;;;;;;1.45;0.80;;;;;;;13.82;100.00;98242.22;15293574;19;20313;-80
2022/05/25 07:32:32;;;;;;;0.90;0.63;;;;;;;13.95;100.00;98249.69;15298153;19;20519;-83
2022/05/25 07:37:41;;;;;;;1.58;0.60;;;;;;;14.05;100.00;98254.00;15293577;19;20015;-83
2022/05/25 07:42:55;;;;;;;2.25;0.63;;;;;;;14.09;100.00;98266.13;15301471;19;20018;-82
2022/05/25 07:48:01;;;;;;;1.10;0.73;;;;;;;14.12;100.00;98254.91;15299248;19;20114;-82
2022/05/25 07:58:35;;;;;;;1.20;0.60;;;;;;;14.03;100.00;98256.91;15294664;19;20011;-82
2022/05/25 08:09:00;;;;;;;1.40;0.60;;;;;;;14.21;100.00;98253.81;15304600;19;20511;-83
2022/05/25 08:14:08;;;;;;;1.15;0.70;;;;;;;14.29;100.00;98253.69;15300840;19;20082;-82
2022/05/25 08:19:13;;;;;;;5.05;0.80;;;;;;;14.56;100.00;98248.59;15296425;19;20022;-82
2022/05/25 08:24:20;;;;;;;2.30;0.80;;;;;;;14.67;100.00;98247.25;15316960;19;20031;-82
2022/05/25 08:29:28;;;;;;;0.63;0.50;;;;;;;14.84;100.00;98247.03;15303985;19;20011;-82
2022/05/25 08:34:38;;;;;;;2.70;0.50;;;;;;;14.91;100.00;98242.50;15294148;19;20011;-81
2022/05/25 08:39:50;;;;;;;0.50;0.50;;;;;;;15.17;100.00;98247.31;15301980;19;20015;-83
2022/05/25 08:45:00;;;;;;;1.27;0.30;;;;;;;15.37;100.00;98241.25;15294052;19;20007;-82
2022/05/25 08:50:08;;;;;;;2.55;0.47;;;;;;;15.64;100.00;98236.00;15295482;19;20031;-78
2022/05/25 08:55:15;;;;;;;2.72;0.40;;;;;;;15.89;100.00;98243.69;15298095;19;20050;-83
2022/05/25 09:00:23;;;;;;;1.40;0.52;;;;;;;15.91;100.00;98244.34;15295158;19;20013;-83
2022/05/25 09:05:34;;;;;;;0.85;0.30;;;;;;;15.74;100.00;98235.63;15293190;19;20367;-83
2022/05/25 09:10:43;;;;;;;1.37;0.40;;;;;;;15.65;100.00;98243.94;15302879;19;20011;-82
2022/05/25 09:21:14;;;;;;;1.00;0.43;;;;;;;16.02;100.00;98241.91;15300166;19;20030;-83
2022/05/25 09:26:19;;;;;;;3.25;0.57;;;;;;;16.16;100.00;98241.97;15295655;19;20531;-83
2022/05/25 09:31:31;;;;;;;1.73;0.38;;;;;;;16.41;100.00;98246.88;15304260;19;20011;-79
2022/05/25 09:36:44;;;;;;;0.88;0.43;;;;;;;16.63;100.00;98244.84;15305599;19;20034;-83
2022/05/25 09:41:57;;;;;;;1.38;0.40;;;;;;;16.91;100.00;98247.44;15302880;19;20018;-83
2022/05/25 09:47:10;;;;;;;1.38;0.40;;;;;;;16.88;100.00;98245.13;15305326;19;20649;-82
2022/05/25 09:52:20;;;;;;;0.77;0.40;;;;;;;17.13;100.00;98243.72;15316490;19;20038;-85
2022/05/25 09:57:30;;;;;;;1.48;0.40;;;;;;;17.29;92.42;98242.47;15344690;19;20050;-83
2022/05/25 10:02:45;;;;;;;1.08;0.50;;;;;;;17.47;98.14;98234.50;15343405;19;20094;-84
2022/05/25 10:07:54;;;;;;;0.50;0.40;;;;;;;17.60;91.38;98227.38;15309091;19;20379;-83
2022/05/25 10:13:15;;;;;;;1.40;0.55;;;;;;;17.79;87.87;98223.78;15307636;19;20030;-83
2022/05/25 10:18:37;;;;;;;1.70;0.52;;;;;;;17.77;73.67;98227.75;15302999;19;20017;-84
2022/05/25 10:23:44;;;;;;;1.73;0.50;;;;;;;17.59;78.56;98237.44;15305959;19;20018;-83
2022/05/25 10:28:55;;;;;;;1.27;0.40;;;;;;;17.57;94.12;98244.97;15310894;19;20090;-85
2022/05/25 10:39:40;;;;;;;1.00;0.40;;;;;;;17.67;88.70;98234.47;15307073;19;20018;-82
2022/05/25 10:44:57;;;;;;;1.10;0.40;;;;;;;17.80;84.12;98230.91;15280158;19;20832;-84
2022/05/25 10:50:11;;;;;;;1.73;0.40;;;;;;;17.94;90.81;98220.81;15316020;19;20007;-84
2022/05/25 10:55:16;;;;;;;1.05;0.40;;;;;;;17.91;81.07;98223.94;15291459;19;20019;-53
2022/05/25 11:00:29;;;;;;;0.45;0.25;;;;;;;17.97;86.09;98223.16;15291686;19;20062;-53
2022/05/25 11:05:44;;;;;;;0.73;0.32;;;;;;;18.00;100.00;98227.31;15295460;19;20038;-56
2022/05/25 11:10:55;;;;;;;0.93;0.30;;;;;;;17.97;88.60;98223.16;15292903;19;20019;-51
2022/05/25 11:16:04;;;;;;;;;;;;;;;18.20;85.05;98210.91;15288255;19;20260;-57
2022/05/25 11:21:24;;;;;;;2.67;0.60;;;;;;;18.43;81.34;98215.00;15292492;19;19919;-55
2022/05/25 11:26:50;;;;;;;2.25;0.45;;;;;;;18.43;74.87;98204.91;15294034;19;20037;-55
2022/05/25 11:32:02;;;;;;;1.13;0.40;;;;;;;18.56;76.13;98205.88;15291271;19;20016;-54
2022/05/25 11:37:26;;;;;;;0.95;0.35;;;;;;;18.64;75.78;98217.38;15292072;19;20502;-54
2022/05/25 11:42:56;;;;;;;1.33;0.40;;;;;;;18.61;79.76;98208.81;15290192;19;20486;-55
2022/05/25 11:48:16;;;;;;;1.25;0.50;;;;;;;18.95;82.58;98201.28;15289146;19;20011;-54
2022/05/25 11:53:55;;;;;;;0.40;0.30;;;;;;;19.46;73.28;98209.47;15289333;19;21061;-57
2022/05/25 11:59:21;;;;;;;1.52;0.50;;;;;;;19.67;74.64;98205.47;15288355;19;20023;-58
2022/05/25 12:04:47;;;;;;;1.10;0.43;;;;;;;19.82;68.00;98205.09;15290868;19;20006;-52
2022/05/25 12:10:23;;;;;;;1.30;0.40;;;;;;;19.71;67.05;98207.53;15291380;19;20090;-58
2022/05/25 12:15:35;;;;;;;0.95;0.40;;;;;;;19.50;68.15;98202.50;15290040;19;20014;-57
2022/05/25 12:20:47;;;;;;;1.75;0.30;;;;;;;19.19;71.21;98206.97;15285812;19;20038;-50
2022/05/25 12:25:58;;;;;;;2.03;0.40;;;;;;;19.30;65.00;98203.53;15288715;19;20081;-58
2022/05/25 12:31:07;;;;;;;0.47;0.30;;;;;;;19.82;63.34;98194.16;15286384;19;20037;-56
2022/05/25 12:36:13;;;;;;;2.50;0.50;;;;;;;20.02;66.18;98193.97;15285055;19;20046;-53
2022/05/25 12:41:35;;;;;;;0.60;0.17;;;;;;;19.85;61.53;98193.72;15287191;19;20038;-52
2022/05/25 12:52:41;;;;;;;0.40;0.28;;;;;;;18.99;63.75;98199.78;15279327;19;20038;-55
2022/05/25 12:57:52;;;;;;;4.40;0.30;;;;;;;19.34;66.91;98188.38;15284472;19;20028;-56
2022/05/25 13:02:57;;;;;;;;;;;;;;;19.68;63.33;98199.81;15284499;19;20154;-52
2022/05/25 13:08:03;;;;;;;1.05;0.30;;;;;;;19.81;62.93;98192.53;15287750;19;19918;-54
2022/05/25 13:13:40;;;;;;;1.92;0.35;;;;;;;20.00;59.83;98196.97;15282962;19;20027;-50
2022/05/25 13:18:54;;;;;;;0.63;0.22;;;;;;;20.20;61.09;98190.41;15285811;19;20030;-54
2022/05/25 13:24:13;;;;;;;2.00;0.30;;;;;;;19.97;58.99;98191.94;15281180;19;20767;-53
2022/05/25 13:29:32;;;;;;;0.52;0.30;;;;;;;19.75;56.61;98202.47;15281807;19;20040;-58
2022/05/25 13:34:37;;;;;;;1.95;0.30;;;;;;;20.58;57.16;98180.25;15272368;19;20031;-57
2022/05/25 13:39:45;;;;;;;1.85;0.45;;;;;;;20.73;52.97;98185.28;15275981;19;20057;-53
2022/05/25 13:45:00;;;;;;;1.00;0.30;;;;;;;20.31;55.26;98189.63;15279122;19;20015;-57
2022/05/25 13:50:05;;;;;;;3.53;0.32;;;;;;;20.23;58.85;98192.69;15279342;19;20239;-57
2022/05/25 13:55:32;;;;;;;0.38;0.20;;;;;;;19.74;58.48;98187.13;15272732;19;20479;-55
2022/05/25 14:00:46;;;;;;;1.98;0.20;;;;;;;19.50;55.84;98180.63;15278836;19;20018;-55
2022/05/25 14:05:55;;;;;;;6.07;0.50;;;;;;;20.50;54.62;98178.66;15275350;19;20015;-57
2022/05/25 14:11:03;;;;;;;1.13;0.30;;;;;;;20.34;52.00;98174.66;15278988;19;20007;-53
2022/05/25 14:16:14;;;;;;;1.75;0.30;;;;;;;20.17;52.91;98175.28;15279556;19;20482;-54
2022/05/25 14:21:34;;;;;;;0.22;0.17;;;;;;;20.41;55.92;98177.28;15279636;19;20026;-58
2022/05/25 14:26:41;;;;;;;4.03;0.40;;;;;;;20.43;55.13;98180.63;15276933;19;20127;-54
2022/05/25 14:31:52;;;;;;;1.08;0.40;;;;;;;20.20;54.60;98168.53;15277595;19;20482;-57
2022/05/25 14:37:01;;;;;;;2.35;0.20;;;;;;;20.24;53.47;98168.88;15278249;19;20026;-53
2022/05/25 14:42:10;;;;;;;1.85;0.30;;;;;;;20.93;50.42;98168.59;15275609;19;20470;-57
2022/05/25 14:47:30;;;;;;;0.93;0.30;;;;;;;21.10;49.46;98168.75;15281005;19;20031;-53
2022/05/25 14:52:35;;;;;;;1.48;0.40;;;;;;;20.89;50.75;98176.41;15275284;19;20030;-53
2022/05/25 14:57:40;;;;;;;1.60;0.20;;;;;;;21.05;50.49;98168.59;15277647;19;20510;-61
2022/05/25 15:03:01;;;;;;;3.95;0.60;;;;;;;21.25;48.15;98171.81;15282499;19;20348;-59
2022/05/25 15:08:08;;;;;;;0.13;0.10;;;;;;;21.32;48.56;98173.63;15294692;19;20022;-60
2022/05/25 15:13:25;;;;;;;2.65;0.30;;;;;;;21.50;48.35;98168.03;15286832;19;20471;-58
2022/05/25 15:18:37;;;;;;;0.75;0.20;;;;;;;21.63;47.48;98164.25;15290606;19;20038;-59
2022/05/25 15:23:47;;;;;;;1.88;0.30;;;;;;;21.48;46.08;98180.31;15291491;19;20034;-55
2022/05/25 15:28:52;;;;;;;0.88;0.32;;;;;;;20.92;49.42;98169.66;15292885;19;20498;-59
2022/05/25 15:34:20;;;;;;;0.57;0.30;;;;;;;20.59;47.60;98181.88;15287625;19;20011;-56
2022/05/25 15:39:25;;;;;;;0.85;0.25;;;;;;;21.10;48.72;98179.69;15288691;19;20043;-59
2022/05/25 15:44:30;;;;;;;1.45;0.20;;;;;;;21.05;47.74;98171.34;15292298;19;20011;-58
2022/05/25 15:49:38;;;;;;;0.85;0.30;;;;;;;20.78;47.27;98179.97;15289514;19;20014;-57
2022/05/25 15:54:46;;;;;;;1.08;0.30;;;;;;;20.55;47.14;98187.00;15290153;19;20010;-61
2022/05/25 15:59:52;;;;;;;1.25;0.20;;;;;;;20.37;47.89;98187.03;15285504;19;20022;-59
2022/05/25 16:05:00;;;;;;;0.32;0.25;;;;;;;20.30;48.89;98185.22;15259450;19;20018;-54
2022/05/25 16:10:07;;;;;;;0.98;0.30;;;;;;;20.13;48.42;98184.19;15288531;19;20014;-57
2022/05/25 16:15:13;;;;;;;1.20;0.30;;;;;;;20.13;51.00;98198.69;15290195;19;20030;-61
2022/05/25 16:20:21;;;;;;;0.45;0.20;;;;;;;20.13;51.46;98193.22;15282309;19;20669;-56
2022/05/25 16:25:28;;;;;;;1.00;0.30;;;;;;;20.07;51.90;98191.41;15281786;19;20014;-59
2022/05/25 16:30:33;;;;;;;11.35;0.90;;;;;;;19.99;52.21;98206.22;15289795;19;20011;-54
2022/05/25 16:35:42;;;;;;;1.08;0.40;;;;;;;19.62;53.20;98195.22;15281402;19;20832;-62
2022/05/25 16:40:47;;;;;;;0.70;0.30;;;;;;;19.64;54.49;98204.03;15285377;19;20014;-60
2022/05/25 16:45:53;;;;;;;0.55;0.30;;;;;;;19.53;54.65;98204.78;15282780;19;20014;-58
2022/05/25 16:51:01;;;;;;;2.85;0.55;;;;;;;19.46;57.70;98212.22;15284337;19;20914;-57
2022/05/25 16:56:08;;;;;;;29.88;1.50;;;;;;;19.16;58.21;98212.88;15284141;19;20006;-59
2022/05/25 17:01:14;;;;;;;1.67;0.30;;;;;;;19.04;59.90;98216.31;15276988;19;20033;-57
2022/05/25 17:06:23;;;;;;;1.25;0.40;;;;;;;18.92;58.07;98228.97;15281621;19;20023;-60
2022/05/25 17:11:28;;;;;;;12.85;0.73;;;;;;;19.55;58.29;98233.53;15277657;19;20037;-57
2022/05/25 17:16:33;;;;;;;0.95;0.45;;;;;;;20.01;55.92;98227.84;15285841;19;20494;-58
2022/05/25 17:21:41;;;;;;;2.53;0.40;;;;;;;20.21;53.86;98224.91;15278467;19;20019;-57
2022/05/25 17:26:47;;;;;;;1.20;0.40;;;;;;;19.95;54.70;98242.44;15284508;19;20344;-56
2022/05/25 17:31:53;;;;;;;0.93;0.30;;;;;;;19.59;55.69;98242.13;15278875;19;20018;-56
2022/05/25 17:42:20;;;;;;;1.05;0.40;;;;;;;19.25;58.03;98249.78;15273344;19;20014;-61
2022/05/25 17:47:25;;;;;;;0.35;0.30;;;;;;;19.03;57.99;98262.97;15283213;19;20006;-57
2022/05/25 17:52:33;;;;;;;0.63;0.20;;;;;;;19.02;56.47;98264.03;15278894;19;20015;-57
2022/05/25 17:57:38;;;;;;;1.42;0.40;;;;;;;18.84;57.78;98265.56;15285462;19;20034;-56
2022/05/25 18:02:43;;;;;;;0.98;0.30;;;;;;;18.73;57.54;98275.28;15279780;19;20018;-64
2022/05/25 18:07:51;;;;;;;0.90;0.30;;;;;;;18.42;58.55;98282.31;15284096;19;20025;-61
2022/05/25 18:12:56;;;;;;;0.43;0.30;;;;;;;18.33;60.48;98291.81;15274037;19;20510;-54
2022/05/25 18:18:11;;;;;;;0.95;0.40;;;;;;;18.28;57.00;98297.09;15281714;19;20490;-56
2022/05/25 18:23:19;;;;;;;1.08;0.30;;;;;;;18.31;58.50;98293.91;15278514;19;20015;-61
2022/05/25 18:28:24;;;;;;;0.20;0.20;;;;;;;18.06;57.98;98297.31;15280613;19;20018;-58
2022/05/25 18:33:29;;;;;;;2.00;0.32;;;;;;;17.89;57.68;98306.97;15278743;19;20022;-58
2022/05/25 18:38:37;;;;;;;0.80;0.30;;;;;;;17.79;57.36;98291.91;15297653;19;20392;-61
2022/05/25 18:49:33;;;;;;;0.60;0.22;;;;;;;17.39;59.58;98295.47;15296117;19;19983;-61
2022/05/25 18:54:43;;;;;;;1.65;0.40;;;;;;;17.18;62.11;98306.53;15295496;19;20035;-61
2022/05/25 18:59:48;;;;;;;0.20;0.20;;;;;;;16.97;62.30;98315.72;15291922;19;20033;-60
2022/05/25 19:04:56;;;;;;;0.65;0.30;;;;;;;16.91;61.07;98323.63;15292751;19;20349;-60
2022/05/25 19:10:05;;;;;;;0.45;0.20;;;;;;;16.85;62.70;98331.75;15292251;19;20365;-61
2022/05/25 19:15:11;;;;;;;0.45;0.20;;;;;;;16.70;63.07;98321.03;15293242;19;20017;-57
2022/05/25 19:20:16;;;;;;;6.63;0.40;;;;;;;16.52;66.72;98336.03;15287086;19;20042;-60
2022/05/25 19:25:27;;;;;;;2.67;0.30;;;;;;;16.34;70.12;98333.88;15291089;19;20011;-61
2022/05/25 19:30:32;;;;;;;1.17;0.30;;;;;;;16.14;77.00;98336.44;15291742;19;20030;-62
2022/05/25 19:35:41;;;;;;;0.75;0.30;;;;;;;15.93;79.37;98343.66;15293640;19;20267;-61
2022/05/25 19:41:00;;;;;;;1.88;0.38;;;;;;;15.76;79.89;98358.50;15290354;19;20367;-62
2022/05/25 19:46:05;;;;;;;1.13;0.40;;;;;;;15.67;78.72;98361.38;15288991;19;20009;-60
2022/05/25 19:51:11;;;;;;;2.30;0.28;;;;;;;15.58;79.01;98367.97;15285861;19;20018;-62
2022/05/25 19:56:19;;;;;;;2.88;0.40;;;;;;;15.43;83.27;98376.16;15288583;19;20015;-60
2022/05/25 20:01:24;;;;;;;1.60;0.30;;;;;;;15.32;85.55;98368.53;15286517;19;20046;-60
2022/05/25 20:06:29;;;;;;;0.70;0.30;;;;;;;15.30;85.43;98370.59;15289174;19;20498;-62
2022/05/25 20:11:37;;;;;;;2.63;0.43;;;;;;;15.29;87.31;98374.38;15289365;19;20054;-61
2022/05/25 20:16:42;;;;;;;3.38;0.50;;;;;;;15.28;85.06;98378.94;15289650;19;20457;-62
2022/05/25 20:21:48;;;;;;;2.88;0.50;;;;;;;15.28;85.62;98378.94;15282000;19;20121;-60
2022/05/25 20:27:09;;;;;;;0.55;0.30;;;;;;;15.25;85.25;98380.19;15290483;19;20013;-62
2022/05/25 20:32:14;;;;;;;1.25;0.40;;;;;;;15.22;86.97;98391.41;15285348;19;20041;-61
2022/05/25 20:37:19;;;;;;;0.45;0.30;;;;;;;15.19;88.80;98383.66;15287743;19;20014;-62
2022/05/25 20:42:27;;;;;;;1.25;0.50;;;;;;;15.14;90.77;98388.84;15284145;19;20026;-61
2022/05/25 20:47:32;;;;;;;3.58;0.40;;;;;;;15.06;93.04;98397.06;15281376;19;20459;-61
2022/05/25 20:52:38;;;;;;;1.98;0.30;;;;;;;14.98;97.12;98400.75;15282355;19;20018;-62
2022/05/25 20:57:49;;;;;;;0.90;0.38;;;;;;;14.83;100.00;98398.03;15281147;19;20014;-61
2022/05/25 21:02:54;;;;;;;1.23;0.40;;;;;;;14.73;100.00;98392.94;15285063;19;20006;-62
2022/05/25 21:08:01;;;;;;;0.80;0.40;;;;;;;14.68;100.00;98398.06;15285089;19;20359;-62
2022/05/25 21:13:10;;;;;;;2.67;0.47;;;;;;;14.65;100.00;98398.41;15278437;19;20006;-61
2022/05/25 21:18:15;;;;;;;1.15;0.50;;;;;;;14.59;100.00;98404.59;15287507;19;20057;-62
2022/05/25 21:23:21;;;;;;;2.03;0.47;;;;;;;14.55;100.00;98403.28;15281347;19;20037;-62
2022/05/25 21:28:28;;;;;;;0.85;0.43;;;;;;;14.51;100.00;98405.53;15282993;19;20010;-62
2022/05/25 21:33:35;;;;;;;0.73;0.40;;;;;;;14.49;100.00;98413.88;15282635;19;20018;-60
2022/05/25 21:38:41;;;;;;;1.55;0.50;;;;;;;14.45;100.00;98400.88;15286005;19;20010;-62
2022/05/25 21:43:48;;;;;;;1.52;0.50;;;;;;;14.41;100.00;98410.38;15283886;19;20018;-60
2022/05/25 21:54:11;;;;;;;2.15;0.50;;;;;;;14.37;100.00;98415.34;15286930;19;20014;-54
2022/05/25 21:59:18;;;;;;;0.75;0.40;;;;;;;14.35;100.00;98411.16;15280864;19;20041;-61
2022/05/25 22:04:23;;;;;;;0.82;0.50;;;;;;;14.33;100.00;98419.44;15278919;19;20018;-60
2022/05/25 22:09:28;;;;;;;0.80;0.52;;;;;;;14.32;100.00;98420.47;15277349;19;20018;-60
2022/05/25 22:14:37;;;;;;;0.90;0.38;;;;;;;14.26;100.00;98418.53;15281592;19;20483;-61
2022/05/25 22:19:42;;;;;;;0.40;0.32;;;;;;;14.25;100.00;98422.25;15285666;19;20558;-60
2022/05/25 22:24:47;;;;;;;1.25;0.40;;;;;;;14.22;100.00;98420.75;15283924;19;20015;-59
2022/05/25 22:29:54;;;;;;;0.90;0.43;;;;;;;14.21;100.00;98426.34;15280649;19;20534;-60
2022/05/25 22:34:59;;;;;;;2.65;0.38;;;;;;;14.18;100.00;98431.09;15284253;19;20015;-61
2022/05/25 22:40:05;;;;;;;0.82;0.43;;;;;;;14.16;100.00;98424.19;15280395;19;20351;-58
2022/05/25 22:45:13;;;;;;;0.75;0.63;;;;;;;14.07;100.00;98436.97;15280710;19;20476;-57
2022/05/25 22:50:18;;;;;;;0.38;0.20;;;;;;;14.01;100.00;98432.31;15282414;19;20037;-57
2022/05/25 22:55:24;;;;;;;0.32;0.30;;;;;;;13.94;100.00;98432.19;15283497;19;20494;-60
2022/05/25 23:00:31;;;;;;;1.55;0.30;;;;;;;13.90;100.00;98436.28;15279701;19;20022;-60
2022/05/25 23:05:37;;;;;;;0.63;0.47;;;;;;;13.89;100.00;98441.88;15277046;19;20367;-60
2022/05/25 23:10:42;;;;;;;1.42;0.40;;;;;;;13.92;100.00;98433.41;15280260;19;20499;-61
2022/05/25 23:15:54;;;;;;;0.47;0.35;;;;;;;13.89;100.00;98440.00;15279929;19;20470;-61
2022/05/25 23:20:59;;;;;;;0.75;0.40;;;;;;;13.87;100.00;98434.78;15285833;19;20489;-60
2022/05/25 23:26:05;;;;;;;0.73;0.30;;;;;;;13.89;100.00;98440.00;15295067;19;20024;-59
2022/05/25 23:31:13;;;;;;;0.75;0.40;;;;;;;13.93;100.00;98435.09;15293968;19;20018;-61
2022/05/25 23:36:22;;;;;;;0.90;0.40;;;;;;;13.97;100.00;98436.38;15289707;19;20068;-60
2022/05/25 23:46:47;;;;;;;0.70;0.40;;;;;;;14.00;100.00;98426.03;15294505;19;20006;-62
2022/05/25 23:51:52;;;;;;;0.85;0.50;;;;;;;13.98;100.00;98432.66;15289015;19;20018;-60
2022/05/25 23:56:57;;;;;;;3.97;0.57;;;;;;;14.00;100.00;98430.63;15293309;19;20349;-61
